Latest Weather Observations for Biloela

IDQ60801

Issued at 1:02 pm EST Saturday 18 April 2015 (issued every 30 minutes, with the page automatically refreshed every 10 minutes)

About weather observations | Map of weather stations | Latest weather observations for QLD | Other Formats
Station Details ID: 039089 Name: THANGOOL AIRPORT Lat: -24.49 Lon: 150.57 Height: 193.1 m
Data from the previous 72 hours. | See also: Recent months at Biloela
Date/Time
EST
Temp
°C
App
Temp
°C
Dew
Point
Rel
Hum
%
Delta-T
°C
Wind Press
QNH
hPa
Press
MSL
hPa
Rain
since 9 am
mm
Dir
 
Spd
km/h
Gust
km/h
Spd
kts
Gust
kts
18/01:00pm 28.5 26.1 14.3 41 8.6 NE 20 28 11 15 1018.5 - 0.0
18/12:30pm 29.0 27.1 15.2 43 8.5 ENE 19 28 10 15 1018.9 - 0.0
18/12:00pm 28.9 26.5 14.3 40 8.8 NE 20 28 11 15 1019.2 1018.4 0.0
18/11:30am 27.6 25.7 15.3 47 7.5 ENE 19 24 10 13 1019.9 - 0.0
18/11:00am 27.6 25.6 14.9 45 7.7 ENE 19 28 10 15 1020.6 - 0.0
18/10:30am 28.7 26.7 15.6 45 8.1 E 20 28 11 15 1021.0 - 0.0
18/10:00am 26.6 24.6 15.0 49 7.1 NNE 19 24 10 13 1021.3 - 0.0
18/09:30am 26.1 25.4 15.5 52 6.5 NE 13 28 7 15 1021.4 - 0.0
18/08:30am 23.5 24.3 17.3 68 3.9 ESE 9 11 5 6 1021.4 - 0.0
18/08:00am 22.1 24.3 18.3 79 2.4 E 4 9 2 5 1021.0 - 0.0
18/07:30am 19.5 21.8 17.8 90 1.1 SW 2 4 1 2 1020.8 - 0.0
18/07:00am 16.8 18.7 15.7 93 0.7 CALM 0 0 0 0 1020.3 - 0.0
18/06:30am 15.9 16.2 14.6 92 0.8 ESE 6 7 3 4 1020.3 - 0.0
18/06:00am 17.2 17.9 16.2 94 0.6 SSE 7 9 4 5 1019.9 1019.1 0.0
18/05:30am 16.9 18.5 15.9 94 0.6 SE 2 7 1 4 1019.7 - 0.0
18/05:00am 17.2 18.8 15.9 92 0.8 SSE 2 6 1 3 1019.6 - 0.0
18/04:30am 18.1 20.2 16.3 89 1.1 CALM 0 0 0 0 1019.5 - 0.0
18/04:00am 19.1 21.2 17.1 88 1.2 SSE 2 6 1 3 1019.5 - 0.0
18/03:30am 18.9 20.6 17.2 90 1.0 ESE 4 7 2 4 1019.7 - 0.0
18/03:00am 18.8 21.2 17.1 90 1.0 CALM 0 0 0 0 1019.9 1019.1 0.0
18/02:30am 18.5 19.8 17.2 92 0.8 E 6 7 3 4 1020.0 - 0.0
18/02:00am 17.5 18.3 15.8 90 1.0 NE 6 7 3 4 1020.1 - 0.0
18/01:30am 18.0 19.2 16.0 88 1.2 E 4 6 2 3 1020.3 - 0.0
18/01:00am 18.9 20.0 16.5 86 1.5 E 6 7 3 4 1020.6 - 0.0
18/12:30am 19.6 20.9 17.6 88 1.2 SE 7 11 4 6 1020.8 - 0.0
18/12:00am 19.3 21.5 16.5 84 1.7 CALM 0 0 0 0 1020.9 1020.1 0.0
 
Date/Time
EST
Temp
°C
App
Temp
°C
Dew
Point
Rel
Hum
%
Delta-T
°C
Wind Press
QNH
hPa
Press
MSL
hPa
Rain
since 9 am
mm
Dir
 
Spd
km/h
Gust
km/h
Spd
kts
Gust
kts
17/11:42pm 19.2 21.3 16.2 83 1.8 CALM 0 2 0 1 1020.8 - 0.0
17/11:31pm 18.9 19.7 15.8 82 1.9 SSE 6 9 3 5 1020.9 - 0.0
17/11:30pm 18.9 19.6 15.6 81 2.0 SSE 6 7 3 4 1020.9 - 0.0
17/11:00pm 19.7 19.8 15.4 76 2.6 E 9 11 5 6 1020.9 - 0.0
17/10:30pm 19.9 20.3 16.2 79 2.2 ESE 9 13 5 7 1020.9 - 0.0
17/10:00pm 19.3 19.3 15.2 77 2.4 ESE 9 17 5 9 1020.9 - 0.0
17/09:30pm 20.5 20.6 15.5 73 3.0 ESE 9 13 5 7 1020.9 - 0.0
17/09:00pm 20.5 20.5 15.1 71 3.2 ESE 9 13 5 7 1020.9 1020.1 0.0
17/08:30pm 20.8 20.9 15.4 71 3.2 ESE 9 13 5 7 1021.0 - 0.0
17/08:00pm 20.5 21.8 15.1 71 3.2 ENE 2 6 1 3 1020.7 - 0.0
17/07:30pm 21.4 21.2 14.6 65 4.0 E 9 13 5 7 1020.2 - 0.0
17/07:00pm 21.6 21.0 14.7 65 4.1 E 11 15 6 8 1019.8 - 0.0
17/06:30pm 22.4 22.1 14.3 60 4.8 ENE 9 13 5 7 1019.3 - 0.0
17/06:00pm 23.6 22.6 13.5 53 5.9 ENE 11 15 6 8 1018.9 1018.1 0.0
17/05:30pm 25.6 23.5 13.5 47 7.2 ENE 17 20 9 11 1018.6 - 0.0
17/05:00pm 27.4 24.6 12.6 40 8.7 ENE 19 26 10 14 1018.3 - 0.0
17/04:30pm 28.1 26.1 12.8 38 9.0 ENE 15 24 8 13 1018.0 - 0.0
17/04:00pm 27.3 25.9 13.3 42 8.3 NE 13 19 7 10 1017.9 - 0.0
17/03:30pm 27.5 24.6 12.3 39 8.9 E 19 24 10 13 1018.0 - 0.0
17/03:00pm 29.6 27.8 13.4 37 9.7 NE 15 22 8 12 1018.2 1017.4 0.0
17/02:30pm 29.2 26.6 13.8 39 9.3 ENE 20 32 11 17 1018.3 - 0.0
17/02:00pm 27.9 25.4 14.2 43 8.3 NE 20 24 11 13 1018.4 - 0.0
17/01:30pm 26.9 25.5 14.6 46 7.4 E 15 26 8 14 1018.7 - 0.0
17/01:00pm 27.2 25.1 15.2 47 7.3 ENE 20 28 11 15 1019.4 - 0.0
17/12:30pm 26.5 24.5 15.5 50 6.7 ESE 20 28 11 15 1020.0 - 0.0
17/12:00pm 27.6 25.8 15.9 49 7.2 E 20 28 11 15 1020.7 1019.9 0.0
17/11:30am 27.1 25.6 16.7 53 6.5 E 20 32 11 17 1021.5 - 0.0
17/11:00am 26.0 24.3 16.3 55 6.0 E 20 35 11 19 1022.1 - 0.0
17/10:30am 26.2 25.1 17.3 58 5.6 SE 19 28 10 15 1022.7 - 0.0
17/10:00am 25.1 23.6 16.3 58 5.4 ESE 19 30 10 16 1023.0 - 0.0
17/09:30am 24.3 22.8 16.3 61 4.9 ESE 19 28 10 15 1023.4 - 0.0
17/09:00am 23.9 21.5 16.4 63 4.6 ESE 24 39 13 21 1023.6 1022.8 0.0
17/08:30am 22.7 22.4 17.4 72 3.3 ESE 15 26 8 14 1023.5 - 0.0
17/08:00am 20.7 20.9 16.7 78 2.4 SE 11 17 6 9 1023.1 - 0.0
17/07:30am 19.6 20.1 16.6 83 1.8 SE 9 13 5 7 1023.0 - 0.0
17/07:00am 17.8 19.4 17.0 95 0.5 SE 4 11 2 6 1022.6 - 0.0
17/06:30am 15.4 15.7 14.6 95 0.5 ESE 6 7 3 4 1022.3 - 0.0
17/06:00am 15.3 15.6 14.5 95 0.5 SE 6 7 3 4 1022.1 1021.4 0.0
17/05:30am 15.5 16.0 14.9 96 0.3 SE 6 9 3 5 1021.9 - 0.0
17/05:01am 14.4 15.4 13.3 93 0.6 CALM 0 0 0 0 1021.8 - 0.0
17/05:00am 14.1 15.0 12.8 92 0.7 CALM 0 0 0 0 1021.8 - 0.0
17/04:41am 14.2 15.1 12.9 92 0.7 CALM 0 0 0 0 1021.6 - 0.0
17/04:35am 14.5 15.5 13.2 92 0.7 CALM 0 0 0 0 1021.6 - 0.0
17/04:30am 14.3 15.1 12.7 90 0.9 CALM 0 0 0 0 1021.6 - 0.0
17/04:13am 14.7 15.7 13.2 91 0.8 CALM 0 0 0 0 1021.4 - 0.0
17/04:00am 15.4 16.6 13.8 90 0.9 CALM 0 0 0 0 1021.3 - 0.0
17/03:30am 16.7 17.2 15.6 93 0.6 ESE 7 11 4 6 1021.2 - 0.0
17/03:00am 16.0 15.9 15.0 94 0.6 ESE 9 11 5 6 1021.1 1020.4 0.0
17/02:30am 15.5 15.9 14.7 95 0.5 SE 6 9 3 5 1021.4 - 0.0
17/02:00am 15.4 15.6 14.6 95 0.5 SSE 7 11 4 6 1021.6 - 0.0
17/01:30am 14.7 15.8 13.4 92 0.7 CALM 0 0 0 0 1022.0 - 0.0
17/01:00am 14.8 15.8 13.3 91 0.8 CALM 0 0 0 0 1022.4 - 0.0
17/12:30am 15.5 16.8 14.0 91 0.9 CALM 0 0 0 0 1022.7 - 0.0
17/12:00am 15.2 15.1 13.2 88 1.1 E 6 7 3 4 1022.9 1022.2 0.0
 
Date/Time
EST
Temp
°C
App
Temp
°C
Dew
Point
Rel
Hum
%
Delta-T
°C
Wind Press
QNH
hPa
Press
MSL
hPa
Rain
since 9 am
mm
Dir
 
Spd
km/h
Gust
km/h
Spd
kts
Gust
kts
16/11:30pm 15.6 16.6 13.1 85 1.4 CALM 0 0 0 0 1023.1 - 0.0
16/11:00pm 16.5 17.8 14.2 86 1.3 CALM 0 0 0 0 1023.1 - 0.0
16/10:30pm 16.7 16.6 13.2 80 2.0 E 6 9 3 5 1023.3 - 0.0
16/10:00pm 18.3 20.1 15.4 83 1.7 CALM 0 0 0 0 1023.4 - 0.0
16/09:30pm 18.0 19.3 14.1 78 2.3 CALM 0 0 0 0 1023.4 - 0.0
16/09:00pm 19.8 20.4 15.4 76 2.6 SE 6 9 3 5 1023.3 1022.5 0.0
16/08:30pm 20.3 21.5 15.9 76 2.6 ESE 4 7 2 4 1022.9 - 0.0
16/08:00pm 20.5 22.2 15.3 72 3.1 CALM 0 0 0 0 1022.6 - 0.0
16/07:30pm 21.0 21.4 15.3 70 3.4 ENE 7 9 4 5 1022.3 - 0.0
16/07:00pm 22.7 22.2 16.0 66 4.1 ENE 13 17 7 9 1021.8 - 0.0
16/06:30pm 24.0 22.6 16.5 63 4.6 NE 19 22 10 12 1021.3 - 0.0
16/06:00pm 24.2 22.8 13.4 51 6.3 E 13 20 7 11 1020.9 1020.1 0.0
16/05:30pm 26.2 25.2 12.3 42 8.1 ESE 9 11 5 6 1020.5 - 0.0
16/05:00pm 27.6 26.3 12.4 39 8.9 ESE 11 19 6 10 1020.3 - 0.0
16/04:30pm 28.8 26.5 13.1 38 9.4 E 17 22 9 12 1020.2 - 0.0
16/04:00pm 28.8 26.2 13.1 38 9.4 ESE 19 32 10 17 1020.2 - 0.0
16/03:30pm 28.1 25.9 12.0 36 9.4 ESE 15 22 8 12 1020.2 - 0.0
16/03:00pm 28.6 26.2 12.5 37 9.5 E 17 24 9 13 1020.2 1019.4 0.0
16/02:30pm 29.8 27.9 13.1 36 10.0 E 15 30 8 16 1020.3 - 0.0
16/02:00pm 28.3 26.0 13.0 39 9.1 ESE 17 30 9 16 1020.6 - 0.0
16/01:30pm 29.5 27.6 14.1 39 9.3 E 17 26 9 14 1020.8 - 0.0
16/01:00pm 28.3 27.7 14.5 43 8.4 ESE 11 24 6 13 1021.2 - 0.0
16/12:30pm 28.9 27.4 14.3 40 8.9 ESE 15 20 8 11 1021.7 - 0.0
16/12:00pm 28.4 27.4 14.6 43 8.4 E 13 26 7 14 1022.3 1021.6 0.0
16/11:30am 27.4 25.9 15.4 48 7.4 E 17 26 9 14 1023.0 - 0.0
16/11:00am 26.2 24.5 14.6 48 7.0 E 17 28 9 15 1023.9 - 0.0
16/10:30am 26.0 23.4 14.8 50 6.8 E 22 26 12 14 1024.5 - 0.0
16/10:00am 24.6 22.8 15.5 57 5.5 ESE 19 28 10 15 1025.0 - 0.0
16/09:30am 23.9 21.6 15.7 60 5.0 ESE 22 33 12 18 1025.2 - 0.0
16/09:00am 22.8 21.0 15.9 65 4.2 ESE 20 33 11 18 1025.4 1024.6 0.0
16/08:30am 21.4 20.7 15.5 69 3.5 ESE 13 24 7 13 1025.5 - 0.0
16/08:00am 19.2 19.4 14.7 75 2.6 ENE 7 9 4 5 1025.3 - 0.0
16/07:30am 16.8 17.1 14.4 86 1.4 ESE 6 7 3 4 1025.1 - 0.0
16/07:00am 14.6 15.4 13.8 95 0.5 ENE 2 9 1 5 1025.0 - 0.0
16/06:30am 12.8 13.5 12.2 96 0.3 CALM 0 0 0 0 1024.8 - 0.0
16/06:18am 11.7 10.8 10.8 94 0.5 ESE 6 7 3 4 1024.6 - 0.0
16/06:00am 11.9 12.2 10.8 93 0.6 CALM 0 0 0 0 1024.6 1023.8 0.0
16/05:58am 11.6 11.8 10.7 94 0.5 CALM 0 0 0 0 1024.6 - 0.0
16/05:30am 12.8 13.4 11.9 94 0.5 CALM 0 0 0 0 1024.2 - 0.0
16/05:00am 13.0 12.5 12.2 95 0.4 SSE 6 7 3 4 1024.0 - 0.0
16/04:38am 13.2 14.0 12.4 95 0.4 CALM 0 0 0 0 1023.9 - 0.0
16/04:30am 12.7 13.3 11.8 94 0.5 CALM 0 0 0 0 1023.8 - 0.0
16/04:09am 12.6 13.1 11.5 93 0.6 CALM 0 0 0 0 1023.8 - 0.0
16/04:00am 13.1 13.7 12.0 93 0.6 CALM 0 0 0 0 1023.6 - 0.0
16/03:30am 13.3 14.0 12.2 93 0.6 CALM 0 0 0 0 1023.5 - 0.0
16/03:00am 13.4 14.0 12.0 91 0.8 CALM 0 0 0 0 1023.6 1022.8 0.0
16/02:30am 13.6 14.3 12.3 92 0.7 CALM 0 0 0 0 1023.7 - 0.0
16/02:00am 13.6 14.2 12.0 90 0.9 CALM 0 0 0 0 1024.1 - 0.0
16/01:30am 14.2 14.3 12.8 91 0.8 ESE 4 6 2 3 1024.2 - 0.0
16/01:00am 13.9 14.3 11.2 84 1.4 CALM 0 0 0 0 1024.4 - 0.0
16/12:30am 14.9 15.7 12.4 85 1.4 CALM 0 0 0 0 1024.6 - 0.0
16/12:00am 15.3 15.6 12.1 81 1.7 E 2 7 1 4 1024.8 1024.0 0.0
 
Date/Time
EST
Temp
°C
App
Temp
°C
Dew
Point
Rel
Hum
%
Delta-T
°C
Wind Press
QNH
hPa
Press
MSL
hPa
Rain
since 9 am
mm
Dir
 
Spd
km/h
Gust
km/h
Spd
kts
Gust
kts
15/11:30pm 15.8 15.3 12.5 81 1.8 E 7 7 4 4 1024.8 - 0.0
15/11:00pm 17.1 17.2 13.8 81 1.9 E 6 7 3 4 1024.8 - 0.0
15/10:30pm 17.3 17.5 13.2 77 2.3 E 4 6 2 3 1024.8 - 0.0
15/10:00pm 18.0 17.6 13.1 73 2.8 ESE 7 7 4 4 1024.7 - 0.0
15/09:30pm 18.5 17.6 12.7 69 3.3 ESE 9 13 5 7 1024.6 - 0.0
15/09:00pm 19.3 18.5 12.8 66 3.7 E 9 11 5 6 1024.4 1023.6 0.0
15/08:30pm 19.2 18.7 12.5 65 3.8 E 7 9 4 5 1024.1 - 0.0
15/08:00pm 19.7 19.3 12.5 63 4.1 E 6 7 3 4 1023.8 - 0.0
15/07:30pm 20.5 19.3 11.7 57 4.9 E 9 11 5 6 1023.6 - 0.0
15/07:00pm 22.6 21.6 12.3 52 5.9 ESE 9 13 5 7 1023.3 - 0.0
15/06:30pm 23.0 22.0 12.3 51 6.1 ESE 9 13 5 7 1022.8 - 0.0
15/06:00pm 24.2 22.7 11.9 46 7.0 E 11 13 6 7 1022.6 1021.9 0.0
15/05:30pm 26.0 23.2 11.4 40 8.4 E 17 20 9 11 1022.3 - 0.0
15/05:00pm 27.0 24.1 11.1 37 9.1 E 17 22 9 12 1021.9 - 0.0
15/04:30pm 27.6 23.7 10.8 35 9.6 E 22 30 12 16 1021.7 - 0.0
15/04:00pm 28.0 24.9 11.5 35 9.5 E 19 30 10 16 1021.5 - 0.0
15/03:30pm 28.0 26.4 12.8 39 9.0 ESE 13 22 7 12 1021.3 - 0.0
15/03:00pm 28.7 26.0 13.0 38 9.3 ESE 19 26 10 14 1021.3 1020.6 0.0
15/02:30pm 28.4 26.4 12.7 38 9.3 ESE 15 20 8 11 1021.1 - 0.0
15/02:00pm 29.8 28.3 13.1 36 10.0 E 13 22 7 12 1021.0 - 0.0
15/01:30pm 29.8 27.5 13.1 36 10.0 E 17 26 9 14 1021.3 - 0.0

Other Formats:

Comma delimited format used in spreadsheet applications
http://www.bom.gov.au/fwo/IDQ60801/IDQ60801.94376.axf

JavaScript Object Notation format (JSON) in row-major order
http://www.bom.gov.au/fwo/IDQ60801/IDQ60801.94376.json